Dover, Delaware
Current Conditions -  °F | °C
As of 8:58 PM on Tuesday 21 Oct 2014 (Local Time) from KDOV Reporting Station
Scattered Clouds Scattered Clouds  
Wind Chill: 13°   Ceiling: Unl
Heat Index: 13°   Visibility: 10mi
Dew Point: 11°   Wind: 2mph
Humidity: 91%   Direction: 310°NW
Pressure: 29.83"   Gusts: NA
Location:  39.16°N, 75.52°W
Report Text: KDOV 220058Z AUTO 31002KT 10SM SCT190 13/11 A2983 RMK AO2 SLP105 T01280113
Loading
Personal Weather Stations






























Interactive Weather Map
Tropical Storm Tracking
New forecast layout! Learn more

10-Day Weather Forecast

Advertisements
Track Severe Weather on mobile